»·PEaware :: N82806 KBUR-KLAS

N82806 :: KBUR-KLAS

FLIGHT INFORMATION

Flight Status: Arrived
Operator: Privately registered:
United States
More flights under this callsign
Pilot: Gregory A. (9731)
Aircraft: PIPER PA-34 SENECA
(PA34)
More flights by this aircraft type
Origin: KBUR Bob Hope-Burbank
United States
Destination: KLAS McCarran Intl
United States
More flights between these airports :: More routes between these airports
Route: +VNY3 DAG CRESO4
File this flight plan on PilotEdge
Remarks: i5
Altitude:
(Current/Filed)
13,000ft
Speed:
(Current/Filed)
180kts
Departed: 03-Dec-17 12:26 PM
Arrived: 03-Dec-17 01:53 PM
Distance/Time
Traveled:
193nm/1:26
Distance/Time
To Go:
Arrived

Flight Plot

Page will automatically refresh every two minutes.

Flight plan parsing failed; only flown route is shown


Map Options




Map Legend


Flown Route
Filed Route
Departure Airport
Arrival Airport
Navaid (VOR, NDB)
Fix

Horizontal Profiles

Position Reports

Time Latitude Longitude Heading Altitude Ground
Speed
03-Dec-17 12:05 34.196019 -118.366240 181 724ft 0kts
03-Dec-17 12:06 34.196019 -118.366240 181 724ft 0kts
03-Dec-17 12:07 34.196019 -118.366240 181 724ft 0kts
03-Dec-17 12:08 34.196018 -118.366240 181 724ft 0kts
03-Dec-17 12:09 34.196018 -118.366240 181 724ft 0kts
03-Dec-17 12:10 34.196018 -118.366240 181 724ft 0kts
03-Dec-17 12:11 34.196017 -118.366240 181 724ft 0kts
03-Dec-17 12:12 34.196016 -118.366240 181 724ft 0kts
03-Dec-17 12:13 34.196016 -118.366240 181 724ft 0kts
03-Dec-17 12:14 34.196015 -118.366240 181 724ft 0kts
03-Dec-17 12:15 34.196015 -118.366240 181 724ft 0kts
03-Dec-17 12:16 34.196014 -118.366240 181 724ft 0kts
03-Dec-17 12:17 34.196014 -118.366240 181 724ft 0kts
03-Dec-17 12:18 34.196013 -118.366240 181 724ft 0kts
03-Dec-17 12:19 34.196012 -118.366240 181 724ft 0kts
03-Dec-17 12:20 34.196012 -118.366240 181 724ft 0kts
03-Dec-17 12:21 34.196011 -118.366240 181 724ft 0kts
03-Dec-17 12:22 34.196011 -118.366240 181 724ft 0kts
03-Dec-17 12:23 34.196010 -118.366240 181 724ft 0kts
03-Dec-17 12:24 34.196009 -118.366240 182 724ft 0kts
03-Dec-17 12:25 34.196949 -118.366962 273 724ft 12kts
03-Dec-17 12:26 34.197300 -118.368992 336 724ft 0kts
03-Dec-17 12:27 34.197300 -118.368992 336 724ft 0kts
03-Dec-17 12:28 34.197300 -118.368992 336 724ft 0kts
03-Dec-17 12:29 34.197300 -118.368992 336 724ft 0kts
03-Dec-17 12:30 34.197301 -118.368993 336 724ft 0kts
03-Dec-17 12:31 34.197898 -118.367386 88 724ft 41kts
03-Dec-17 12:32 34.187696 -118.347376 211 1582ft 101kts
03-Dec-17 12:33 34.165908 -118.370646 221 2693ft 111kts
03-Dec-17 12:34 34.143212 -118.396957 239 3695ft 115kts
03-Dec-17 12:35 34.138074 -118.435186 323 4136ft 136kts
03-Dec-17 12:36 34.171562 -118.444213 349 5113ft 117kts
03-Dec-17 12:37 34.203088 -118.450981 349 6069ft 112kts
03-Dec-17 12:38 34.232783 -118.457298 349 7032ft 104kts
03-Dec-17 12:39 34.260509 -118.463069 348 8001ft 101kts
03-Dec-17 12:40 34.290849 -118.465162 3 9064ft 114kts
03-Dec-17 12:41 34.323018 -118.462440 3 10065ft 115kts
03-Dec-17 12:42 34.354575 -118.459731 3 10943ft 117kts
03-Dec-17 12:43 34.390878 -118.446926 44 11015ft 158kts
03-Dec-17 12:44 34.419252 -118.403155 52 11001ft 169kts
03-Dec-17 12:45 34.448362 -118.356796 52 11000ft 173kts
03-Dec-17 12:46 34.477643 -118.310118 52 11000ft 174kts
03-Dec-17 12:47 34.506927 -118.263312 52 11000ft 174kts
03-Dec-17 12:48 34.536811 -118.215694 52 11006ft 187kts
03-Dec-17 12:49 34.569946 -118.162760 52 11001ft 202kts
03-Dec-17 12:50 34.604083 -118.108025 52 11000ft 204kts
03-Dec-17 12:51 34.631427 -118.048409 76 11002ft 204kts
03-Dec-17 12:52 34.640361 -117.983038 81 11549ft 189kts
03-Dec-17 12:53 34.647337 -117.919899 82 12219ft 187kts
03-Dec-17 12:54 34.654160 -117.857097 82 12854ft 189kts
03-Dec-17 12:55 34.661428 -117.789890 82 12942ft 217kts
03-Dec-17 12:56 34.675896 -117.720508 73 12923ft 203kts
03-Dec-17 12:57 34.691853 -117.656889 72 12925ft 193kts
03-Dec-17 12:58 34.707660 -117.594833 72 12926ft 192kts
03-Dec-17 12:59 34.723510 -117.532728 72 12926ft 191kts
03-Dec-17 13:00 34.739261 -117.470913 72 12935ft 191kts
03-Dec-17 13:01 34.754989 -117.409057 72 12935ft 191kts
03-Dec-17 13:02 34.770748 -117.346933 72 12935ft 191kts
03-Dec-17 13:03 34.786427 -117.284975 72 12935ft 191kts
03-Dec-17 13:04 34.802123 -117.222804 72 12935ft 191kts
03-Dec-17 13:05 34.818012 -117.159768 72 12914ft 198kts
03-Dec-17 13:06 34.833727 -117.097195 72 12934ft 191kts
03-Dec-17 13:07 34.849219 -117.035334 72 12935ft 190kts
03-Dec-17 13:08 34.864609 -116.973767 72 12935ft 190kts
03-Dec-17 13:09 34.879962 -116.912200 72 12959ft 188kts
03-Dec-17 13:10 34.895137 -116.851196 72 13028ft 189kts
03-Dec-17 13:11 34.910385 -116.789758 72 13027ft 190kts
03-Dec-17 13:12 34.925694 -116.727912 73 13027ft 190kts
03-Dec-17 13:13 34.940927 -116.666188 73 13027ft 190kts
03-Dec-17 13:14 34.956109 -116.604409 73 13012ft 191kts
03-Dec-17 13:15 34.978475 -116.543000 61 12981ft 203kts
03-Dec-17 13:16 35.004276 -116.484610 61 13007ft 192kts
03-Dec-17 13:17 35.030859 -116.424660 61 12376ft 206kts
03-Dec-17 13:18 35.058466 -116.362468 61 11721ft 207kts
03-Dec-17 13:19 35.085621 -116.301323 61 11219ft 203kts
03-Dec-17 13:20 35.112439 -116.240618 61 10718ft 202kts
03-Dec-17 13:21 35.138800 -116.180798 61 10308ft 199kts
03-Dec-17 13:22 35.164767 -116.121752 61 10012ft 193kts
03-Dec-17 13:23 35.189670 -116.064974 61 10008ft 185kts
03-Dec-17 13:24 35.213888 -116.009692 61 10009ft 184kts
03-Dec-17 13:25 35.237999 -115.954598 61 10009ft 183kts
03-Dec-17 13:26 35.262148 -115.899324 61 10009ft 183kts
03-Dec-17 13:27 35.286180 -115.844203 61 10009ft 183kts
03-Dec-17 13:28 35.311148 -115.789512 53 10010ft 183kts
03-Dec-17 13:29 35.344579 -115.742264 47 10009ft 183kts
03-Dec-17 13:30 35.379084 -115.696154 47 10009ft 183kts
03-Dec-17 13:31 35.413743 -115.649898 47 10009ft 183kts
03-Dec-17 13:32 35.448284 -115.603735 47 10009ft 183kts
03-Dec-17 13:33 35.482787 -115.557530 47 10009ft 183kts
03-Dec-17 13:34 35.517410 -115.511166 47 10008ft 184kts
03-Dec-17 13:35 35.553843 -115.462443 47 9385ft 199kts
03-Dec-17 13:36 35.591257 -115.412219 47 8734ft 198kts
03-Dec-17 13:37 35.628289 -115.362361 47 8085ft 197kts
03-Dec-17 13:38 35.665103 -115.312643 47 7435ft 196kts
03-Dec-17 13:39 35.701587 -115.263521 47 6994ft 187kts
03-Dec-17 13:40 35.735607 -115.217490 47 6989ft 179kts
03-Dec-17 13:41 35.768916 -115.172322 47 6990ft 178kts
03-Dec-17 13:42 35.809604 -115.142067 10 6993ft 177kts
03-Dec-17 13:43 35.858232 -115.131063 10 6990ft 177kts
03-Dec-17 13:44 35.907015 -115.120099 10 6990ft 177kts
03-Dec-17 13:45 35.955637 -115.109158 10 6990ft 177kts
03-Dec-17 13:46 36.004267 -115.098201 10 6990ft 177kts
03-Dec-17 13:47 36.053040 -115.087197 10 6990ft 177kts
03-Dec-17 13:48 36.101682 -115.076209 10 6990ft 177kts
03-Dec-17 13:49 36.150305 -115.065212 10 6990ft 177kts
03-Dec-17 13:50 36.199186 -115.055544 352 6979ft 178kts
03-Dec-17 13:51 36.201673 -115.098909 209 6142ft 176kts
03-Dec-17 13:52 36.159577 -115.123391 204 5366ft 132kts
03-Dec-17 13:53 36.134076 -115.137483 202 4129ft 92kts
03-Dec-17 13:54 36.108903 -115.150923 207 2627ft 103kts
03-Dec-17 13:55 36.096099 -115.158352 202 2118ft 68kts
03-Dec-17 13:58 36.089272 -115.163227 293 2118ft 0kts
03-Dec-17 13:59 36.090278 -115.164238 10 2118ft 10kts
03-Dec-17 14:00 36.091770 -115.164525 328 2118ft 0kts
03-Dec-17 14:01 36.091885 -115.164611 328 2118ft 0kts

Navigation Log

Ident Type
Flight plan parsing failed, navigation log unavailable